Terminal Aerodrome Forecast
Issued by NWS

Home | Current Version | Previous Version | Text Only | Print | Product List | Glossary On
Versions: 1 2 3 4 5 6 7 8 9 10 11 12 13 14 15 16 17 18
000
FTUS42 KTAE 290520
TAFVLD
TAF
KVLD 290520Z 2906/3006 00000KT P6SM SCT030
     FM290800 00000KT 4SM BR FEW010 BKN050
     FM291400 16006KT P6SM BKN025
     FM291600 16009KT P6SM BKN050=

USA.gov is the U.S. government's official web portal to all federal, state and local government web resources and services.